WDH weather

Hosea Kutako International Airport
Windhoek, Khomas Region, Namibia

Public forecast

Using degrees Celsius for public forecast. Weather courtesy of forecast.io.

METAR (pilot weather report)

Retrieved 2018/12/12 10:00 UTC (1 hour ago):

FYWH 121000Z 10004KT CAVOK 29/M05 Q1024 NOSIG

TAF (pilot weather forecast)

Forecast is more than 12 hours old.

Retrieved 2018/12/11 00:00 UTC (1 day ago):

TAF FYWH 112200Z 1200/1300 22005KT CAVOK BECMG 1203/1205 15007KT BECMG 1207/1209 07006KT